createdAt,value
2018-09-09T00:00:34.037Z,14.07
2018-09-09T00:01:34.016Z,14.12
2018-09-09T00:02:34.003Z,14.08
2018-09-09T00:03:34.007Z,14.12
2018-09-09T00:04:34.019Z,14.14
2018-09-09T00:05:33.973Z,14.04
2018-09-09T00:06:34.018Z,14.05
2018-09-09T00:07:33.947Z,14.10
2018-09-09T00:08:33.947Z,14.08
2018-09-09T00:09:33.953Z,14.23
2018-09-09T00:10:33.917Z,14.18
2018-09-09T00:11:33.981Z,14.22
2018-09-09T00:12:33.910Z,14.28
2018-09-09T00:13:33.902Z,14.30
2018-09-09T00:14:33.916Z,14.20
2018-09-09T00:15:33.884Z,14.25
2018-09-09T00:16:33.857Z,14.29
2018-09-09T00:17:33.835Z,14.25
2018-09-09T00:18:33.872Z,14.26
2018-09-09T00:19:33.831Z,14.32
2018-09-09T00:20:33.811Z,14.30
2018-09-09T00:21:33.795Z,14.29
2018-09-09T00:22:33.788Z,14.36
2018-09-09T00:23:33.766Z,14.29
2018-09-09T00:24:33.787Z,14.36
2018-09-09T00:25:33.766Z,14.33
2018-09-09T00:26:33.729Z,14.35
2018-09-09T00:27:33.735Z,14.37
2018-09-09T00:28:33.720Z,14.32
2018-09-09T00:29:33.706Z,14.32
2018-09-09T00:30:33.711Z,14.43
2018-09-09T00:31:33.685Z,14.37
2018-09-09T00:32:33.691Z,14.33
2018-09-09T00:33:33.686Z,14.35
2018-09-09T00:34:33.644Z,14.29
2018-09-09T00:35:33.633Z,14.32
2018-09-09T00:36:33.667Z,14.29
2018-09-09T00:37:33.614Z,14.30
2018-09-09T00:38:33.604Z,14.35
2018-09-09T00:39:33.586Z,14.30
2018-09-09T00:40:33.578Z,14.32
2018-09-09T00:41:33.573Z,14.35
2018-09-09T00:42:33.577Z,14.32
2018-09-09T00:43:33.538Z,14.28
2018-09-09T00:44:33.533Z,14.36
2018-09-09T00:45:33.541Z,14.30
2018-09-09T00:46:33.517Z,14.28
2018-09-09T00:47:33.496Z,14.28
2018-09-09T00:48:33.534Z,14.32
2018-09-09T00:49:33.472Z,14.26
2018-09-09T00:50:33.485Z,14.32
2018-09-09T00:51:33.458Z,14.26
2018-09-09T00:52:33.452Z,14.14
2018-09-09T00:53:33.447Z,14.12
2018-09-09T00:54:33.434Z,14.15
2018-09-09T00:55:33.401Z,14.15
2018-09-09T00:56:33.417Z,14.05
2018-09-09T00:57:33.392Z,14.14
2018-09-09T00:58:33.417Z,14.07
2018-09-09T00:59:33.361Z,14.03
2018-09-09T01:00:33.410Z,14.05
2018-09-09T01:01:33.341Z,14.10
2018-09-09T01:02:33.428Z,14.08
2018-09-09T01:03:33.325Z,14.03
2018-09-09T01:04:33.346Z,13.96
2018-09-09T01:05:33.317Z,14.05
2018-09-09T01:06:33.321Z,13.97
2018-09-09T01:07:33.390Z,14.03
2018-09-09T01:08:33.347Z,13.89
2018-09-09T01:09:33.248Z,13.96
2018-09-09T01:10:33.234Z,14.03
2018-09-09T01:11:33.255Z,14.03
2018-09-09T01:12:33.270Z,14.03
2018-09-09T01:13:33.266Z,13.92
2018-09-09T01:14:33.195Z,13.93
2018-09-09T01:15:33.194Z,13.90
2018-09-09T01:16:33.182Z,13.90
2018-09-09T01:17:33.196Z,13.90
2018-09-09T01:18:33.171Z,13.87
2018-09-09T01:19:33.168Z,13.95
2018-09-09T01:20:33.305Z,13.93
2018-09-09T01:21:33.136Z,13.92
2018-09-09T01:22:33.127Z,13.92
2018-09-09T01:23:33.093Z,13.96
2018-09-09T01:24:33.200Z,13.92
2018-09-09T01:25:33.084Z,13.93
2018-09-09T01:26:33.063Z,13.97
2018-09-09T01:27:33.054Z,14.00
2018-09-09T01:28:33.045Z,13.95
2018-09-09T01:29:33.064Z,13.96
2018-09-09T01:30:33.084Z,13.92
2018-09-09T01:31:33.082Z,13.97
2018-09-09T01:32:32.992Z,13.95
2018-09-09T01:33:32.990Z,14.00
2018-09-09T01:34:32.967Z,14.03
2018-09-09T01:35:32.982Z,13.92
2018-09-09T01:36:32.996Z,13.93
2018-09-09T01:37:32.940Z,14.03
2018-09-09T01:38:32.926Z,13.96
2018-09-09T01:39:32.918Z,14.04
2018-09-09T01:40:32.928Z,13.96
2018-09-09T01:41:32.949Z,14.00
2018-09-09T01:42:32.957Z,13.99
2018-09-09T01:43:32.862Z,13.99
2018-09-09T01:44:32.862Z,13.97
2018-09-09T01:45:32.841Z,13.93
2018-09-09T01:46:32.831Z,13.97
2018-09-09T01:47:32.834Z,13.92
2018-09-09T01:48:32.984Z,13.99
2018-09-09T01:49:32.803Z,13.89
2018-09-09T01:50:32.811Z,13.93
2018-09-09T01:51:32.773Z,13.99
2018-09-09T01:52:32.770Z,13.89
2018-09-09T01:53:32.757Z,13.97
2018-09-09T01:54:32.779Z,13.96
2018-09-09T01:55:32.830Z,13.90
2018-09-09T01:56:32.715Z,13.95
2018-09-09T01:57:32.736Z,13.92
2018-09-09T01:58:32.691Z,13.93
2018-09-09T01:59:32.685Z,13.92
2018-09-09T02:00:32.729Z,13.92
2018-09-09T02:01:32.680Z,13.90
2018-09-09T02:02:32.657Z,13.95
2018-09-09T02:03:32.664Z,13.90
2018-09-09T02:04:32.645Z,13.87
2018-09-09T02:05:32.632Z,13.86
2018-09-09T02:06:32.630Z,13.86
2018-09-09T02:07:32.602Z,13.87
2018-09-09T02:08:32.580Z,13.81
2018-09-09T02:09:32.575Z,13.95
2018-09-09T02:10:32.590Z,13.86
2018-09-09T02:11:32.575Z,13.78
2018-09-09T02:12:32.556Z,13.87
2018-09-09T02:13:32.523Z,13.81
2018-09-09T02:14:32.515Z,13.78
2018-09-09T02:15:32.502Z,13.75
2018-09-09T02:16:32.500Z,13.74
2018-09-09T02:17:32.509Z,13.74
2018-09-09T02:18:32.499Z,13.85
2018-09-09T02:19:32.459Z,13.75
2018-09-09T02:20:32.498Z,13.72
2018-09-09T02:21:32.442Z,13.78
2018-09-09T02:22:32.441Z,13.71
2018-09-09T02:23:32.428Z,13.78
2018-09-09T02:24:32.450Z,13.71
2018-09-09T02:25:32.434Z,13.70
2018-09-09T02:26:32.382Z,13.70
2018-09-09T02:27:32.369Z,13.68
2018-09-09T02:28:32.406Z,13.67
2018-09-09T02:29:32.356Z,13.70
2018-09-09T02:30:32.349Z,13.71
2018-09-09T02:31:32.321Z,13.65
2018-09-09T02:32:32.329Z,13.74
2018-09-09T02:33:32.315Z,13.77
2018-09-09T02:34:32.304Z,13.65
2018-09-09T02:35:32.309Z,13.72
2018-09-09T02:36:32.281Z,13.71
2018-09-09T02:37:32.264Z,13.74
2018-09-09T02:38:32.315Z,13.70
2018-09-09T02:39:32.272Z,13.74
2018-09-09T02:40:32.228Z,13.65
2018-09-09T02:41:32.211Z,13.67
2018-09-09T02:42:32.215Z,13.63
2018-09-09T02:43:32.274Z,13.67
2018-09-09T02:44:32.191Z,13.62
2018-09-09T02:45:32.199Z,13.70
2018-09-09T02:46:32.170Z,13.68
2018-09-09T02:47:32.160Z,13.63
2018-09-09T02:48:32.152Z,13.63
2018-09-09T02:49:32.145Z,13.62
2018-09-09T02:50:32.113Z,13.67
2018-09-09T02:51:32.145Z,13.65
2018-09-09T02:52:32.085Z,13.65
2018-09-09T02:53:32.077Z,13.62
2018-09-09T02:54:32.075Z,13.62
2018-09-09T02:55:32.098Z,13.71
2018-09-09T02:56:32.056Z,13.65
2018-09-09T02:57:32.052Z,13.63
2018-09-09T02:58:32.033Z,13.67
2018-09-09T02:59:32.053Z,13.60
2018-09-09T03:00:32.001Z,13.63
2018-09-09T03:01:31.989Z,13.65
2018-09-09T03:02:31.985Z,13.67
2018-09-09T03:03:31.978Z,13.70
2018-09-09T03:04:31.972Z,13.70
2018-09-09T03:05:31.955Z,13.70
2018-09-09T03:06:31.965Z,13.75
2018-09-09T03:07:31.922Z,13.65
2018-09-09T03:08:31.917Z,13.68
2018-09-09T03:09:31.947Z,13.71
2018-09-09T03:10:31.896Z,13.71
2018-09-09T03:11:31.890Z,13.75
2018-09-09T03:12:31.907Z,13.83
2018-09-09T03:13:31.860Z,13.78
2018-09-09T03:14:31.854Z,13.78
2018-09-09T03:15:31.949Z,13.83
2018-09-09T03:16:31.839Z,13.79
2018-09-09T03:17:31.810Z,13.81
2018-09-09T03:18:31.839Z,13.86
2018-09-09T03:19:31.782Z,13.75
2018-09-09T03:20:31.803Z,13.92
2018-09-09T03:21:31.805Z,13.83
2018-09-09T03:22:31.766Z,13.78
2018-09-09T03:23:31.738Z,13.81
2018-09-09T03:24:31.730Z,13.79
2018-09-09T03:25:31.738Z,13.86
2018-09-09T03:26:31.744Z,13.79
2018-09-09T03:27:31.743Z,13.68
2018-09-09T03:28:31.758Z,13.78
2018-09-09T03:29:31.685Z,13.79
2018-09-09T03:30:31.704Z,13.87
2018-09-09T03:31:31.675Z,13.83
2018-09-09T03:32:31.633Z,13.83
2018-09-09T03:33:31.655Z,13.75
2018-09-09T03:34:31.630Z,13.81
2018-09-09T03:35:31.606Z,13.79
2018-09-09T03:36:31.620Z,13.81
2018-09-09T03:37:31.599Z,13.78
2018-09-09T03:38:31.601Z,13.78
2018-09-09T03:39:31.556Z,13.81
2018-09-09T03:40:31.620Z,13.78
2018-09-09T03:41:31.537Z,13.89
2018-09-09T03:42:31.524Z,13.95
2018-09-09T03:43:31.561Z,13.95
2018-09-09T03:44:31.524Z,13.96
2018-09-09T03:45:31.496Z,13.87
2018-09-09T03:46:31.526Z,13.93
2018-09-09T03:47:31.480Z,13.85
2018-09-09T03:48:31.490Z,13.85
2018-09-09T03:49:31.443Z,13.95
2018-09-09T03:50:31.430Z,13.83
2018-09-09T03:51:31.429Z,13.78
2018-09-09T03:52:31.457Z,13.79
2018-09-09T03:53:31.439Z,13.78
2018-09-09T03:54:31.409Z,13.78
2018-09-09T03:55:31.384Z,13.77
2018-09-09T03:56:31.394Z,13.68
2018-09-09T03:57:31.354Z,13.60
2018-09-09T03:58:31.416Z,13.79
2018-09-09T03:59:31.336Z,13.70
2018-09-09T04:00:31.349Z,13.68
2018-09-09T04:01:31.333Z,13.70
2018-09-09T04:02:31.308Z,13.67
2018-09-09T04:03:31.299Z,13.63
2018-09-09T04:04:31.303Z,13.70
2018-09-09T04:05:31.271Z,13.56
2018-09-09T04:06:31.257Z,13.67
2018-09-09T04:07:31.245Z,13.67
2018-09-09T04:08:31.232Z,13.60
2018-09-09T04:09:31.214Z,13.67
2018-09-09T04:10:31.236Z,13.54
2018-09-09T04:11:31.203Z,13.53
2018-09-09T04:12:31.194Z,13.57
2018-09-09T04:13:31.192Z,13.63
2018-09-09T04:14:31.170Z,13.65
2018-09-09T04:15:31.153Z,13.70
2018-09-09T04:16:31.176Z,13.67
2018-09-09T04:17:31.162Z,13.70
2018-09-09T04:18:31.139Z,13.72
2018-09-09T04:19:31.117Z,13.67
2018-09-09T04:20:31.102Z,13.86
2018-09-09T04:21:31.087Z,13.85
2018-09-09T04:22:31.092Z,13.85
2018-09-09T04:23:31.069Z,13.77
2018-09-09T04:24:31.066Z,13.79
2018-09-09T04:25:31.044Z,13.78
2018-09-09T04:26:31.029Z,13.81
2018-09-09T04:27:31.047Z,13.77
2018-09-09T04:28:31.025Z,13.86
2018-09-09T04:29:30.997Z,13.87
2018-09-09T04:30:30.992Z,13.78
2018-09-09T04:31:30.976Z,13.87
2018-09-09T04:32:30.960Z,13.78
2018-09-09T04:33:30.947Z,13.78
2018-09-09T04:34:30.965Z,13.81
2018-09-09T04:35:30.924Z,13.86
2018-09-09T04:36:30.917Z,13.83
2018-09-09T04:37:30.914Z,13.78
2018-09-09T04:38:30.927Z,13.77
2018-09-09T04:39:30.895Z,13.71
2018-09-09T04:40:30.886Z,13.75
2018-09-09T04:41:30.866Z,13.77
2018-09-09T04:42:30.875Z,13.71
2018-09-09T04:43:30.835Z,13.74
2018-09-09T04:44:30.827Z,13.67
2018-09-09T04:45:30.864Z,13.72
2018-09-09T04:46:30.879Z,13.70
2018-09-09T04:47:30.795Z,13.71
2018-09-09T04:48:30.806Z,13.71
2018-09-09T04:49:30.771Z,13.68
2018-09-09T04:50:30.801Z,13.65
2018-09-09T04:51:30.789Z,13.74
2018-09-09T04:52:30.734Z,13.70
2018-09-09T04:53:30.722Z,13.67
2018-09-09T04:54:30.719Z,13.65
2018-09-09T04:55:30.703Z,13.65
2018-09-09T04:56:30.731Z,13.60
2018-09-09T04:57:30.724Z,13.59
2018-09-09T04:58:30.671Z,13.57
2018-09-09T04:59:30.663Z,13.54
2018-09-09T05:00:30.649Z,13.57
2018-09-09T05:01:30.659Z,13.60
2018-09-09T05:02:30.636Z,13.57
2018-09-09T05:03:30.626Z,13.54
2018-09-09T05:04:30.639Z,13.59
2018-09-09T05:05:30.634Z,13.56
2018-09-09T05:06:30.600Z,13.57
2018-09-09T05:07:30.566Z,13.53
2018-09-09T05:08:30.567Z,13.53
2018-09-09T05:09:30.550Z,13.54
2018-09-09T05:10:30.538Z,13.49
2018-09-09T05:11:30.558Z,13.54
2018-09-09T05:12:30.523Z,13.53
2018-09-09T05:13:30.534Z,13.52
2018-09-09T05:14:30.488Z,13.56
2018-09-09T05:15:30.493Z,13.62
2018-09-09T05:16:30.468Z,13.59
2018-09-09T05:17:30.501Z,13.65
2018-09-09T05:18:30.441Z,13.63
2018-09-09T05:19:30.433Z,13.67
2018-09-09T05:20:30.436Z,13.78
2018-09-09T05:21:30.440Z,13.78
2018-09-09T05:22:30.399Z,13.77
2018-09-09T05:23:30.398Z,13.79
2018-09-09T05:24:30.374Z,13.83
2018-09-09T05:25:30.373Z,13.81
2018-09-09T05:26:30.373Z,13.81
2018-09-09T05:27:30.375Z,13.87
2018-09-09T05:28:30.347Z,13.87
2018-09-09T05:29:30.334Z,13.97
2018-09-09T05:30:30.312Z,13.95
2018-09-09T05:31:30.319Z,13.97
2018-09-09T05:32:30.305Z,13.92
2018-09-09T05:33:30.287Z,13.97
2018-09-09T05:34:30.265Z,13.95
2018-09-09T05:35:30.265Z,14.08
2018-09-09T05:36:30.243Z,14.14
2018-09-09T05:37:30.265Z,14.12
2018-09-09T05:38:30.237Z,14.15
2018-09-09T05:39:30.204Z,14.22
2018-09-09T05:40:30.198Z,14.20
2018-09-09T05:41:30.181Z,14.25
2018-09-09T05:42:30.219Z,14.25
2018-09-09T05:43:30.178Z,14.26
2018-09-09T05:44:30.234Z,14.33
2018-09-09T05:45:30.140Z,14.28
2018-09-09T05:46:30.157Z,14.32
2018-09-09T05:47:30.161Z,14.32
2018-09-09T05:48:30.104Z,14.36
2018-09-09T05:49:30.144Z,14.32
2018-09-09T05:50:30.099Z,14.35
2018-09-09T05:51:30.081Z,14.36
2018-09-09T05:52:30.063Z,14.35
2018-09-09T05:53:30.091Z,14.32
2018-09-09T05:54:30.042Z,14.23
2018-09-09T05:55:30.045Z,14.23
2018-09-09T05:56:30.014Z,14.20
2018-09-09T05:57:30.067Z,14.23
2018-09-09T05:58:29.999Z,14.33
2018-09-09T05:59:29.996Z,14.33
2018-09-09T06:00:29.983Z,14.40
2018-09-09T06:01:29.977Z,14.33
2018-09-09T06:02:30.012Z,14.37
2018-09-09T06:03:29.944Z,14.44
2018-09-09T06:04:29.944Z,14.37
2018-09-09T06:05:29.962Z,14.44
2018-09-09T06:06:29.918Z,14.37
2018-09-09T06:07:29.910Z,14.51
2018-09-09T06:08:29.891Z,14.45
2018-09-09T06:09:29.889Z,14.48
2018-09-09T06:10:29.872Z,14.47
2018-09-09T06:11:29.862Z,14.50
2018-09-09T06:12:29.833Z,14.45
2018-09-09T06:13:29.857Z,14.53
2018-09-09T06:14:29.844Z,14.55
2018-09-09T06:15:29.822Z,14.55
2018-09-09T06:16:29.788Z,14.60
2018-09-09T06:17:29.798Z,14.55
2018-09-09T06:18:29.787Z,14.66
2018-09-09T06:19:29.784Z,14.66
2018-09-09T06:20:29.755Z,14.62
2018-09-09T06:21:29.741Z,14.69
2018-09-09T06:22:29.735Z,14.66
2018-09-09T06:23:29.719Z,14.66
2018-09-09T06:24:29.732Z,14.72
2018-09-09T06:25:29.728Z,14.70
2018-09-09T06:26:29.683Z,14.70
2018-09-09T06:27:29.678Z,14.70
2018-09-09T06:28:29.670Z,14.72
2018-09-09T06:29:29.662Z,14.66
2018-09-09T06:30:29.658Z,14.73
2018-09-09T06:31:29.647Z,14.81
2018-09-09T06:32:29.628Z,14.79
2018-09-09T06:33:29.651Z,14.82
2018-09-09T06:34:29.599Z,14.85
2018-09-09T06:35:29.580Z,14.82
2018-09-09T06:36:29.569Z,14.81
2018-09-09T06:37:29.595Z,14.91
2018-09-09T06:38:29.578Z,14.92
2018-09-09T06:39:29.576Z,14.86
2018-09-09T06:40:29.535Z,14.94
2018-09-09T06:41:29.512Z,14.94
2018-09-09T06:42:29.521Z,14.88
2018-09-09T06:43:29.509Z,14.97
2018-09-09T06:44:29.509Z,14.99
2018-09-09T06:45:29.537Z,15.02
2018-09-09T06:46:29.475Z,14.97
2018-09-09T06:47:29.453Z,14.99
2018-09-09T06:48:29.475Z,15.02
2018-09-09T06:49:29.450Z,15.03
2018-09-09T06:50:29.408Z,14.99
2018-09-09T06:51:29.418Z,14.99
2018-09-09T06:52:29.420Z,15.06
2018-09-09T06:53:29.388Z,15.04
2018-09-09T06:54:29.376Z,15.04
2018-09-09T06:55:29.616Z,15.07
2018-09-09T06:56:29.345Z,15.07
2018-09-09T06:57:29.348Z,15.11
2018-09-09T06:58:29.325Z,15.10
2018-09-09T06:59:29.311Z,15.09
2018-09-09T07:00:29.324Z,15.18
2018-09-09T07:01:29.312Z,15.19
2018-09-09T07:02:29.371Z,15.18
2018-09-09T07:03:29.276Z,15.18
2018-09-09T07:04:29.251Z,15.22
2018-09-09T07:05:29.237Z,15.31
2018-09-09T07:06:29.259Z,15.29
2018-09-09T07:07:29.245Z,15.27
2018-09-09T07:08:29.207Z,15.25
2018-09-09T07:09:29.225Z,15.22
2018-09-09T07:10:29.204Z,15.22
2018-09-09T07:11:29.410Z,15.28
2018-09-09T07:12:29.198Z,15.35
2018-09-09T07:13:29.174Z,15.28
2018-09-09T07:14:29.144Z,15.37
2018-09-09T07:15:29.152Z,15.40
2018-09-09T07:16:29.124Z,15.37
2018-09-09T07:17:29.124Z,15.37
2018-09-09T07:18:29.142Z,15.37
2018-09-09T07:19:37.060Z,15.37
2018-09-09T07:20:29.089Z,15.46
2018-09-09T07:21:29.075Z,15.44
2018-09-09T07:22:29.071Z,15.46
2018-09-09T07:23:29.042Z,15.46
2018-09-09T07:24:29.033Z,15.44
2018-09-09T07:25:29.055Z,15.52
2018-09-09T07:26:29.030Z,15.47
2018-09-09T07:27:28.999Z,15.47
2018-09-09T07:28:29.018Z,15.47
2018-09-09T07:29:28.975Z,15.44
2018-09-09T07:30:28.974Z,15.47
2018-09-09T07:31:28.946Z,15.47
2018-09-09T07:32:28.974Z,15.54
2018-09-09T07:33:28.944Z,15.57
2018-09-09T07:34:28.954Z,15.57
2018-09-09T07:35:28.910Z,15.51
2018-09-09T07:36:28.925Z,15.62
2018-09-09T07:37:28.940Z,15.54
2018-09-09T07:38:28.885Z,15.57
2018-09-09T07:39:28.864Z,15.52
2018-09-09T07:40:28.852Z,15.59
2018-09-09T07:41:28.861Z,15.61
2018-09-09T07:42:28.833Z,15.54
2018-09-09T07:43:28.827Z,15.61
2018-09-09T07:44:28.826Z,15.65
2018-09-09T07:45:28.788Z,15.64
2018-09-09T07:46:28.801Z,15.72
2018-09-09T07:47:28.788Z,15.76
2018-09-09T07:48:28.757Z,15.73
2018-09-09T07:49:28.775Z,15.79
2018-09-09T07:50:28.800Z,15.73
2018-09-09T07:51:28.726Z,15.83
2018-09-09T07:52:28.719Z,15.92
2018-09-09T07:53:28.713Z,15.97
2018-09-09T07:54:28.754Z,15.90
2018-09-09T07:55:28.690Z,16.00
2018-09-09T07:56:28.682Z,16.08
2018-09-09T07:57:28.662Z,16.09
2018-09-09T07:58:28.679Z,16.12
2018-09-09T07:59:28.641Z,16.23
2018-09-09T08:00:28.704Z,16.23
2018-09-09T08:01:28.619Z,16.31
2018-09-09T08:02:28.595Z,16.33
2018-09-09T08:03:28.588Z,16.35
2018-09-09T08:04:28.596Z,16.38
2018-09-09T08:05:28.596Z,16.43
2018-09-09T08:06:28.572Z,16.39
2018-09-09T08:07:28.546Z,16.49
2018-09-09T08:08:28.542Z,16.54
2018-09-09T08:09:28.534Z,16.57
2018-09-09T08:10:28.515Z,16.69
2018-09-09T08:11:28.526Z,16.64
2018-09-09T08:12:28.485Z,16.71
2018-09-09T08:13:28.489Z,16.86
2018-09-09T08:14:28.461Z,16.89
2018-09-09T08:15:28.482Z,16.90
2018-09-09T08:16:28.448Z,16.94
2018-09-09T08:17:28.441Z,17.04
2018-09-09T08:18:28.462Z,17.08
2018-09-09T08:19:28.430Z,17.15
2018-09-09T08:20:28.416Z,17.15
2018-09-09T08:21:28.415Z,17.09
2018-09-09T08:22:28.369Z,17.16
2018-09-09T08:23:28.429Z,17.15
2018-09-09T08:24:28.361Z,17.19
2018-09-09T08:25:28.340Z,17.24
2018-09-09T08:26:28.343Z,17.29
2018-09-09T08:27:28.323Z,17.27
2018-09-09T08:28:28.308Z,17.34
2018-09-09T08:29:28.314Z,17.49
2018-09-09T08:30:28.282Z,17.59
2018-09-09T08:31:28.283Z,17.60
2018-09-09T08:32:28.257Z,17.48
2018-09-09T08:33:28.254Z,17.46
2018-09-09T08:34:28.268Z,17.57
2018-09-09T08:35:28.253Z,17.60
2018-09-09T08:36:28.221Z,17.82
2018-09-09T08:37:28.212Z,17.82
2018-09-09T08:38:28.190Z,17.78
2018-09-09T08:39:28.181Z,17.82
2018-09-09T08:40:28.205Z,17.83
2018-09-09T08:41:28.179Z,17.82
2018-09-09T08:42:28.169Z,17.85
2018-09-09T08:43:28.145Z,18.01
2018-09-09T08:44:28.141Z,18.08
2018-09-09T08:45:28.126Z,18.18
2018-09-09T08:46:28.147Z,18.23
2018-09-09T08:47:28.108Z,18.20
2018-09-09T08:48:28.087Z,18.25
2018-09-09T08:49:28.070Z,18.25
2018-09-09T08:50:28.059Z,18.20
2018-09-09T08:51:28.060Z,18.20
2018-09-09T08:52:28.063Z,18.38
2018-09-09T08:53:28.036Z,18.26
2018-09-09T08:54:28.007Z,18.35
2018-09-09T08:55:28.002Z,18.37
2018-09-09T08:56:27.991Z,18.26
2018-09-09T08:57:28.044Z,18.05
2018-09-09T08:58:27.964Z,18.08
2018-09-09T08:59:27.967Z,18.20
2018-09-09T09:00:27.971Z,18.41
2018-09-09T09:01:27.943Z,18.50
2018-09-09T09:02:27.937Z,18.59
2018-09-09T09:03:27.929Z,18.68
2018-09-09T09:04:27.901Z,18.70
2018-09-09T09:05:27.919Z,18.71
2018-09-09T09:06:27.883Z,18.83
2018-09-09T09:07:27.907Z,18.78
2018-09-09T09:08:27.855Z,18.99
2018-09-09T09:09:27.865Z,19.15
2018-09-09T09:10:27.832Z,19.29
2018-09-09T09:11:27.826Z,19.45
2018-09-09T09:12:27.813Z,19.31
2018-09-09T09:13:27.794Z,19.45
2018-09-09T09:14:27.784Z,19.54
2018-09-09T09:15:27.810Z,19.64
2018-09-09T09:16:27.771Z,19.62
2018-09-09T09:17:27.768Z,19.54
2018-09-09T09:18:27.771Z,19.44
2018-09-09T09:19:27.748Z,19.47
2018-09-09T09:20:27.773Z,19.45
2018-09-09T09:21:27.771Z,19.55
2018-09-09T09:22:27.751Z,19.54
2018-09-09T09:23:27.722Z,19.48
2018-09-09T09:24:27.703Z,19.56
2018-09-09T09:25:27.672Z,19.56
2018-09-09T09:26:27.658Z,19.51
2018-09-09T09:27:27.668Z,19.51
2018-09-09T09:28:27.663Z,19.54
2018-09-09T09:29:27.647Z,19.66
2018-09-09T09:30:27.620Z,19.70
2018-09-09T09:31:27.596Z,19.67
2018-09-09T09:32:27.588Z,19.62
2018-09-09T09:33:27.615Z,19.58
2018-09-09T09:34:27.560Z,19.63
2018-09-09T09:35:27.552Z,19.62
2018-09-09T09:36:27.585Z,19.73
2018-09-09T09:37:27.538Z,19.82
2018-09-09T09:38:27.518Z,19.89
2018-09-09T09:39:27.628Z,20.03
2018-09-09T09:40:27.511Z,20.06
2018-09-09T09:41:27.505Z,19.94
2018-09-09T09:42:27.473Z,20.04
2018-09-09T09:43:27.474Z,20.03
2018-09-09T09:44:27.460Z,19.91
2018-09-09T09:45:27.477Z,19.96
2018-09-09T09:46:27.428Z,20.07
2018-09-09T09:47:27.453Z,20.13
2018-09-09T09:48:27.423Z,20.11
2018-09-09T09:49:27.399Z,20.16
2018-09-09T09:50:27.424Z,20.18
2018-09-09T09:51:27.375Z,20.40
2018-09-09T09:52:27.361Z,20.37
2018-09-09T09:53:27.385Z,20.37
2018-09-09T09:54:27.345Z,20.37
2018-09-09T09:55:27.383Z,20.25
2018-09-09T09:56:27.323Z,20.47
2018-09-09T09:57:27.348Z,20.19
2018-09-09T09:58:27.310Z,20.19
2018-09-09T09:59:27.318Z,20.29
2018-09-09T10:00:27.274Z,20.36
2018-09-09T10:01:27.302Z,20.51
2018-09-09T10:02:27.253Z,20.66
2018-09-09T10:03:27.294Z,20.77
2018-09-09T10:04:27.235Z,20.97
2018-09-09T10:05:27.285Z,21.12
2018-09-09T10:06:27.213Z,21.22
2018-09-09T10:07:27.238Z,21.15
2018-09-09T10:08:27.193Z,21.18
2018-09-09T10:09:27.175Z,21.25
2018-09-09T10:10:27.169Z,21.15
2018-09-09T10:11:27.170Z,21.14
2018-09-09T10:12:27.140Z,20.96
2018-09-09T10:13:27.133Z,20.97
2018-09-09T10:14:27.119Z,20.87
2018-09-09T10:15:27.103Z,21.00
2018-09-09T10:16:27.103Z,20.81
2018-09-09T10:17:27.111Z,20.92
2018-09-09T10:18:27.095Z,21.02
2018-09-09T10:19:27.092Z,21.00
2018-09-09T10:20:27.057Z,21.06
2018-09-09T10:21:27.058Z,21.20
2018-09-09T10:22:27.061Z,21.32
2018-09-09T10:23:27.037Z,21.40
2018-09-09T10:24:27.026Z,21.61
2018-09-09T10:25:26.995Z,21.70
2018-09-09T10:26:26.986Z,21.85
2018-09-09T10:27:26.968Z,21.89
2018-09-09T10:28:26.989Z,21.89
2018-09-09T10:29:26.974Z,21.61
2018-09-09T10:30:26.939Z,21.37
2018-09-09T10:31:26.944Z,21.24
2018-09-09T10:32:26.925Z,20.87
2018-09-09T10:33:29.477Z,20.80
2018-09-09T10:34:26.897Z,20.84
2018-09-09T10:35:26.904Z,20.93
2018-09-09T10:36:26.889Z,20.88
2018-09-09T10:37:26.894Z,20.87
2018-09-09T10:38:26.852Z,20.82
2018-09-09T10:39:26.834Z,20.74
2018-09-09T10:40:26.840Z,20.70
2018-09-09T10:41:26.844Z,20.81
2018-09-09T10:42:26.825Z,20.81
2018-09-09T10:43:26.824Z,21.00
2018-09-09T10:44:26.792Z,21.27
2018-09-09T10:45:26.767Z,21.46
2018-09-09T10:46:26.875Z,21.50
2018-09-09T10:47:26.782Z,21.33
2018-09-09T10:48:26.764Z,21.33
2018-09-09T10:49:26.727Z,21.36
2018-09-09T10:50:26.721Z,21.30
2018-09-09T10:51:26.713Z,21.09
2018-09-09T10:52:26.689Z,20.84
2018-09-09T10:53:26.694Z,20.70
2018-09-09T10:54:26.679Z,20.56
2018-09-09T10:55:26.659Z,20.51
2018-09-09T10:56:26.668Z,20.47
2018-09-09T10:57:26.657Z,20.59
2018-09-09T10:58:26.678Z,20.78
2018-09-09T10:59:26.645Z,20.87
2018-09-09T11:00:26.606Z,20.80
2018-09-09T11:01:26.607Z,20.84
2018-09-09T11:02:26.596Z,20.84
2018-09-09T11:03:26.569Z,20.84
2018-09-09T11:04:26.566Z,20.96
2018-09-09T11:05:26.559Z,20.96
2018-09-09T11:06:26.563Z,20.92
2018-09-09T11:07:26.529Z,20.92
2018-09-09T11:08:26.518Z,20.84
2018-09-09T11:09:26.501Z,20.75
2018-09-09T11:10:26.487Z,20.72
2018-09-09T11:11:26.486Z,20.66
2018-09-09T11:12:26.540Z,20.52
2018-09-09T11:13:26.473Z,20.74
2018-09-09T11:14:26.478Z,20.78
2018-09-09T11:15:26.456Z,20.69
2018-09-09T11:16:26.418Z,20.75
2018-09-09T11:17:26.411Z,20.67
2018-09-09T11:18:26.461Z,20.70
2018-09-09T11:19:26.418Z,20.80
2018-09-09T11:20:26.372Z,20.74
2018-09-09T11:21:26.398Z,20.93
2018-09-09T11:22:26.349Z,21.02
2018-09-09T11:23:26.338Z,21.17
2018-09-09T11:24:26.384Z,21.11
2018-09-09T11:25:26.358Z,21.18
2018-09-09T11:26:26.308Z,21.27
2018-09-09T11:27:26.296Z,21.40
2018-09-09T11:28:26.285Z,21.51
2018-09-09T11:29:26.316Z,21.42
2018-09-09T11:30:26.281Z,21.46
2018-09-09T11:31:26.253Z,21.39
2018-09-09T11:32:26.242Z,21.45
2018-09-09T11:33:26.225Z,21.72
2018-09-09T11:34:26.232Z,21.76
2018-09-09T11:35:26.261Z,21.69
2018-09-09T11:36:26.196Z,21.52
2018-09-09T11:37:26.217Z,21.64
2018-09-09T11:38:26.194Z,22.00
2018-09-09T11:39:26.169Z,22.17
2018-09-09T11:40:26.159Z,22.23
2018-09-09T11:41:26.161Z,22.29
2018-09-09T11:42:26.128Z,22.26
2018-09-09T11:43:26.118Z,22.22
2018-09-09T11:44:26.137Z,22.33
2018-09-09T11:45:26.091Z,22.29
2018-09-09T11:46:26.084Z,22.36
2018-09-09T11:47:26.113Z,22.39
2018-09-09T11:48:26.054Z,22.68
2018-09-09T11:49:26.046Z,22.78
2018-09-09T11:50:26.051Z,22.65
2018-09-09T11:51:26.027Z,22.75
2018-09-09T11:52:26.065Z,22.80
2018-09-09T11:53:26.000Z,22.65
2018-09-09T11:54:25.994Z,22.60
2018-09-09T11:55:25.981Z,22.66
2018-09-09T11:56:26.000Z,22.84
2018-09-09T11:57:25.952Z,22.90
2018-09-09T11:58:25.950Z,22.94
2018-09-09T11:59:25.937Z,22.96
2018-09-09T12:00:25.926Z,23.05
2018-09-09T12:01:25.914Z,22.98
2018-09-09T12:02:25.927Z,23.13
2018-09-09T12:03:25.887Z,22.85
2018-09-09T12:04:25.877Z,22.96
2018-09-09T12:05:25.865Z,22.85
2018-09-09T12:06:25.860Z,22.85
2018-09-09T12:07:25.889Z,22.96
2018-09-09T12:08:25.850Z,22.84
2018-09-09T12:09:25.840Z,22.84
2018-09-09T12:10:25.850Z,22.90
2018-09-09T12:11:25.799Z,23.00
2018-09-09T12:12:25.786Z,23.06
2018-09-09T12:13:25.825Z,23.17
2018-09-09T12:14:25.800Z,23.17
2018-09-09T12:15:25.752Z,23.34
2018-09-09T12:16:25.779Z,23.56
2018-09-09T12:17:25.735Z,23.44
2018-09-09T12:18:25.720Z,23.41
2018-09-09T12:19:25.715Z,23.47
2018-09-09T12:20:25.720Z,23.37
2018-09-09T12:21:25.700Z,23.44
2018-09-09T12:22:25.683Z,23.47
2018-09-09T12:23:25.709Z,23.50
2018-09-09T12:24:25.656Z,23.56
2018-09-09T12:25:25.710Z,23.58
2018-09-09T12:26:25.649Z,23.51
2018-09-09T12:27:25.620Z,23.59
2018-09-09T12:28:25.641Z,23.59
2018-09-09T12:29:25.594Z,23.47
2018-09-09T12:30:25.584Z,23.54
2018-09-09T12:31:25.626Z,23.78
2018-09-09T12:32:25.607Z,23.83
2018-09-09T12:33:25.554Z,23.65
2018-09-09T12:34:25.540Z,23.51
2018-09-09T12:35:25.568Z,23.44
2018-09-09T12:36:25.524Z,23.34
2018-09-09T12:37:25.560Z,23.31
2018-09-09T12:38:25.501Z,23.31
2018-09-09T12:39:25.497Z,23.40
2018-09-09T12:40:25.479Z,23.51
2018-09-09T12:41:25.471Z,23.62
2018-09-09T12:42:25.454Z,23.76
2018-09-09T12:43:25.465Z,23.62
2018-09-09T12:44:25.430Z,23.68
2018-09-09T12:45:25.466Z,23.62
2018-09-09T12:46:25.420Z,23.54
2018-09-09T12:47:25.401Z,23.56
2018-09-09T12:48:25.429Z,23.68
2018-09-09T12:49:25.390Z,23.74
2018-09-09T12:50:25.388Z,23.81
2018-09-09T12:51:25.389Z,23.66
2018-09-09T12:52:25.396Z,23.61